sensor_id;sensor_type;location;lat;lon;timestamp;P1;durP1;ratioP1;P2;durP2;ratioP2
48665;SDS011;34452;50.796;4.994;2023-07-02T00:01:22;34.60;;;12.85;;
48665;SDS011;34452;50.796;4.994;2023-07-02T00:03:47;40.43;;;13.97;;
48665;SDS011;34452;50.796;4.994;2023-07-02T00:08:39;23.45;;;11.30;;
48665;SDS011;34452;50.796;4.994;2023-07-02T00:11:05;33.67;;;13.50;;
48665;SDS011;34452;50.796;4.994;2023-07-02T00:13:31;28.88;;;13.55;;
48665;SDS011;34452;50.796;4.994;2023-07-02T00:15:57;30.02;;;12.38;;
48665;SDS011;34452;50.796;4.994;2023-07-02T00:20:53;35.55;;;14.15;;
48665;SDS011;34452;50.796;4.994;2023-07-02T00:23:19;32.25;;;14.27;;
48665;SDS011;34452;50.796;4.994;2023-07-02T00:25:46;32.38;;;13.88;;
48665;SDS011;34452;50.796;4.994;2023-07-02T00:28:12;32.05;;;12.52;;
48665;SDS011;34452;50.796;4.994;2023-07-02T00:30:37;26.97;;;12.60;;
48665;SDS011;34452;50.796;4.994;2023-07-02T00:33:03;33.60;;;13.40;;
48665;SDS011;34452;50.796;4.994;2023-07-02T00:35:29;27.27;;;12.50;;
48665;SDS011;34452;50.796;4.994;2023-07-02T00:37:54;33.40;;;12.93;;
48665;SDS011;34452;50.796;4.994;2023-07-02T00:40:20;35.55;;;13.90;;
48665;SDS011;34452;50.796;4.994;2023-07-02T00:42:46;38.47;;;14.40;;
48665;SDS011;34452;50.796;4.994;2023-07-02T00:45:11;38.30;;;13.43;;
48665;SDS011;34452;50.796;4.994;2023-07-02T00:47:37;38.38;;;15.25;;
48665;SDS011;34452;50.796;4.994;2023-07-02T00:50:03;31.55;;;14.10;;
48665;SDS011;34452;50.796;4.994;2023-07-02T00:52:30;31.73;;;13.90;;
48665;SDS011;34452;50.796;4.994;2023-07-02T00:54:56;34.88;;;14.90;;
48665;SDS011;34452;50.796;4.994;2023-07-02T00:57:22;32.85;;;14.10;;
48665;SDS011;34452;50.796;4.994;2023-07-02T00:59:48;32.08;;;13.15;;
48665;SDS011;34452;50.796;4.994;2023-07-02T01:02:13;41.40;;;14.63;;
48665;SDS011;34452;50.796;4.994;2023-07-02T01:04:39;30.80;;;13.98;;
48665;SDS011;34452;50.796;4.994;2023-07-02T01:07:05;38.22;;;14.55;;
48665;SDS011;34452;50.796;4.994;2023-07-02T01:09:35;32.25;;;14.52;;
48665;SDS011;34452;50.796;4.994;2023-07-02T01:12:02;35.65;;;15.45;;
48665;SDS011;34452;50.796;4.994;2023-07-02T01:14:32;35.83;;;15.60;;
48665;SDS011;34452;50.796;4.994;2023-07-02T01:17:01;37.40;;;15.40;;
48665;SDS011;34452;50.796;4.994;2023-07-02T01:22:43;33.03;;;15.50;;
48665;SDS011;34452;50.796;4.994;2023-07-02T01:25:09;40.55;;;15.38;;
48665;SDS011;34452;50.796;4.994;2023-07-02T01:27:35;30.02;;;15.00;;
48665;SDS011;34452;50.796;4.994;2023-07-02T01:30:01;36.65;;;15.88;;
48665;SDS011;34452;50.796;4.994;2023-07-02T01:32:27;39.63;;;16.90;;
48665;SDS011;34452;50.796;4.994;2023-07-02T01:34:52;44.88;;;17.35;;
48665;SDS011;34452;50.796;4.994;2023-07-02T01:37:19;39.75;;;16.20;;
48665;SDS011;34452;50.796;4.994;2023-07-02T01:39:45;31.00;;;15.10;;
48665;SDS011;34452;50.796;4.994;2023-07-02T01:42:11;35.35;;;16.80;;
48665;SDS011;34452;50.796;4.994;2023-07-02T01:44:41;34.50;;;15.15;;
48665;SDS011;34452;50.796;4.994;2023-07-02T01:47:07;41.85;;;17.50;;
48665;SDS011;34452;50.796;4.994;2023-07-02T01:49:33;39.97;;;17.35;;
48665;SDS011;34452;50.796;4.994;2023-07-02T01:52:01;37.70;;;17.92;;
48665;SDS011;34452;50.796;4.994;2023-07-02T01:54:27;38.55;;;16.27;;
48665;SDS011;34452;50.796;4.994;2023-07-02T01:56:54;43.38;;;18.02;;
48665;SDS011;34452;50.796;4.994;2023-07-02T01:59:20;40.45;;;16.98;;
48665;SDS011;34452;50.796;4.994;2023-07-02T02:01:46;36.08;;;16.20;;
48665;SDS011;34452;50.796;4.994;2023-07-02T02:04:12;41.05;;;17.77;;
48665;SDS011;34452;50.796;4.994;2023-07-02T02:06:38;39.05;;;17.60;;
48665;SDS011;34452;50.796;4.994;2023-07-02T02:09:05;41.03;;;18.02;;
48665;SDS011;34452;50.796;4.994;2023-07-02T02:11:33;38.40;;;17.23;;
48665;SDS011;34452;50.796;4.994;2023-07-02T02:13:59;41.08;;;17.88;;
48665;SDS011;34452;50.796;4.994;2023-07-02T02:16:26;43.60;;;17.35;;
48665;SDS011;34452;50.796;4.994;2023-07-02T02:18:52;37.38;;;17.45;;
48665;SDS011;34452;50.796;4.994;2023-07-02T02:21:19;36.47;;;17.85;;
48665;SDS011;34452;50.796;4.994;2023-07-02T02:23:45;40.33;;;18.42;;
48665;SDS011;34452;50.796;4.994;2023-07-02T02:26:11;40.33;;;17.85;;
48665;SDS011;34452;50.796;4.994;2023-07-02T02:28:37;38.83;;;18.67;;
48665;SDS011;34452;50.796;4.994;2023-07-02T02:31:03;39.42;;;17.20;;
48665;SDS011;34452;50.796;4.994;2023-07-02T02:33:29;48.38;;;18.33;;
48665;SDS011;34452;50.796;4.994;2023-07-02T02:35:55;50.25;;;20.30;;
48665;SDS011;34452;50.796;4.994;2023-07-02T02:38:20;44.40;;;19.15;;
48665;SDS011;34452;50.796;4.994;2023-07-02T02:40:46;43.53;;;18.83;;
48665;SDS011;34452;50.796;4.994;2023-07-02T02:43:12;44.37;;;19.60;;
48665;SDS011;34452;50.796;4.994;2023-07-02T02:45:38;47.88;;;18.65;;
48665;SDS011;34452;50.796;4.994;2023-07-02T02:48:04;39.85;;;18.17;;
48665;SDS011;34452;50.796;4.994;2023-07-02T02:50:30;49.97;;;20.90;;
48665;SDS011;34452;50.796;4.994;2023-07-02T02:52:55;45.15;;;20.52;;
48665;SDS011;34452;50.796;4.994;2023-07-02T02:55:21;44.33;;;17.85;;
48665;SDS011;34452;50.796;4.994;2023-07-02T02:57:47;44.35;;;20.30;;
48665;SDS011;34452;50.796;4.994;2023-07-02T03:00:13;46.03;;;19.45;;
48665;SDS011;34452;50.796;4.994;2023-07-02T03:02:38;50.97;;;20.33;;
48665;SDS011;34452;50.796;4.994;2023-07-02T03:05:05;49.33;;;21.27;;
48665;SDS011;34452;50.796;4.994;2023-07-02T03:07:31;52.78;;;20.45;;
48665;SDS011;34452;50.796;4.994;2023-07-02T03:12:24;51.33;;;20.15;;
48665;SDS011;34452;50.796;4.994;2023-07-02T03:14:50;44.17;;;20.98;;
48665;SDS011;34452;50.796;4.994;2023-07-02T03:17:19;46.10;;;21.00;;
48665;SDS011;34452;50.796;4.994;2023-07-02T03:19:45;46.42;;;20.42;;
48665;SDS011;34452;50.796;4.994;2023-07-02T03:22:11;51.53;;;20.50;;
48665;SDS011;34452;50.796;4.994;2023-07-02T03:24:37;50.17;;;20.60;;
48665;SDS011;34452;50.796;4.994;2023-07-02T03:27:03;48.92;;;21.63;;
48665;SDS011;34452;50.796;4.994;2023-07-02T03:29:29;54.55;;;22.15;;
48665;SDS011;34452;50.796;4.994;2023-07-02T03:31:55;46.55;;;21.02;;
48665;SDS011;34452;50.796;4.994;2023-07-02T03:34:21;46.95;;;22.05;;
48665;SDS011;34452;50.796;4.994;2023-07-02T03:36:48;48.30;;;21.30;;
48665;SDS011;34452;50.796;4.994;2023-07-02T03:39:14;57.28;;;22.10;;
48665;SDS011;34452;50.796;4.994;2023-07-02T03:41:41;55.08;;;23.02;;
48665;SDS011;34452;50.796;4.994;2023-07-02T03:44:07;50.65;;;21.80;;
48665;SDS011;34452;50.796;4.994;2023-07-02T03:46:33;60.25;;;23.95;;
48665;SDS011;34452;50.796;4.994;2023-07-02T03:48:59;60.00;;;22.17;;
48665;SDS011;34452;50.796;4.994;2023-07-02T03:51:24;60.78;;;24.05;;
48665;SDS011;34452;50.796;4.994;2023-07-02T03:53:50;57.30;;;22.17;;
48665;SDS011;34452;50.796;4.994;2023-07-02T03:56:16;52.45;;;22.45;;
48665;SDS011;34452;50.796;4.994;2023-07-02T03:58:42;56.28;;;24.02;;
48665;SDS011;34452;50.796;4.994;2023-07-02T04:01:08;50.58;;;21.67;;
48665;SDS011;34452;50.796;4.994;2023-07-02T04:03:33;58.25;;;23.15;;
48665;SDS011;34452;50.796;4.994;2023-07-02T04:05:59;48.42;;;20.10;;
48665;SDS011;34452;50.796;4.994;2023-07-02T04:08:25;51.28;;;21.95;;
48665;SDS011;34452;50.796;4.994;2023-07-02T04:10:53;63.38;;;23.80;;
48665;SDS011;34452;50.796;4.994;2023-07-02T04:15:45;55.28;;;24.15;;
48665;SDS011;34452;50.796;4.994;2023-07-02T04:18:12;63.05;;;24.23;;
48665;SDS011;34452;50.796;4.994;2023-07-02T04:20:38;58.83;;;22.25;;
48665;SDS011;34452;50.796;4.994;2023-07-02T04:23:04;73.05;;;26.80;;
48665;SDS011;34452;50.796;4.994;2023-07-02T04:25:31;51.22;;;23.65;;
48665;SDS011;34452;50.796;4.994;2023-07-02T04:27:57;58.10;;;22.33;;
48665;SDS011;34452;50.796;4.994;2023-07-02T04:32:50;63.15;;;24.00;;
48665;SDS011;34452;50.796;4.994;2023-07-02T04:35:17;59.38;;;23.77;;
48665;SDS011;34452;50.796;4.994;2023-07-02T04:40:09;64.50;;;22.63;;
48665;SDS011;34452;50.796;4.994;2023-07-02T04:42:47;52.40;;;23.98;;
48665;SDS011;34452;50.796;4.994;2023-07-02T04:45:32;60.58;;;24.38;;
48665;SDS011;34452;50.796;4.994;2023-07-02T04:48:01;61.53;;;24.35;;
48665;SDS011;34452;50.796;4.994;2023-07-02T04:50:28;61.10;;;24.55;;
48665;SDS011;34452;50.796;4.994;2023-07-02T04:52:53;60.35;;;24.40;;
48665;SDS011;34452;50.796;4.994;2023-07-02T04:55:20;54.65;;;24.17;;
48665;SDS011;34452;50.796;4.994;2023-07-02T04:57:46;61.38;;;25.10;;
48665;SDS011;34452;50.796;4.994;2023-07-02T05:00:12;64.78;;;24.13;;
48665;SDS011;34452;50.796;4.994;2023-07-02T05:02:38;72.40;;;26.20;;
48665;SDS011;34452;50.796;4.994;2023-07-02T05:07:30;56.25;;;25.50;;
48665;SDS011;34452;50.796;4.994;2023-07-02T05:09:56;70.43;;;26.38;;
48665;SDS011;34452;50.796;4.994;2023-07-02T05:12:22;63.78;;;25.63;;
48665;SDS011;34452;50.796;4.994;2023-07-02T05:14:48;71.55;;;25.77;;
48665;SDS011;34452;50.796;4.994;2023-07-02T05:17:14;74.57;;;28.02;;
48665;SDS011;34452;50.796;4.994;2023-07-02T05:19:41;62.10;;;26.30;;
48665;SDS011;34452;50.796;4.994;2023-07-02T05:22:08;61.60;;;24.90;;
48665;SDS011;34452;50.796;4.994;2023-07-02T05:24:34;67.00;;;25.17;;
48665;SDS011;34452;50.796;4.994;2023-07-02T05:27:00;60.72;;;25.52;;
48665;SDS011;34452;50.796;4.994;2023-07-02T05:29:25;65.18;;;26.75;;
48665;SDS011;34452;50.796;4.994;2023-07-02T05:31:51;69.88;;;26.75;;
48665;SDS011;34452;50.796;4.994;2023-07-02T05:34:17;66.75;;;26.77;;
48665;SDS011;34452;50.796;4.994;2023-07-02T05:36:42;67.63;;;26.48;;
48665;SDS011;34452;50.796;4.994;2023-07-02T05:39:09;73.13;;;26.33;;
48665;SDS011;34452;50.796;4.994;2023-07-02T05:41:34;66.18;;;26.00;;
48665;SDS011;34452;50.796;4.994;2023-07-02T05:44:00;65.07;;;25.77;;
48665;SDS011;34452;50.796;4.994;2023-07-02T05:46:26;66.57;;;26.48;;
48665;SDS011;34452;50.796;4.994;2023-07-02T05:48:51;70.13;;;28.83;;
48665;SDS011;34452;50.796;4.994;2023-07-02T05:51:21;69.32;;;28.70;;
48665;SDS011;34452;50.796;4.994;2023-07-02T05:56:13;66.28;;;25.88;;
48665;SDS011;34452;50.796;4.994;2023-07-02T05:58:38;68.80;;;26.38;;
48665;SDS011;34452;50.796;4.994;2023-07-02T06:01:04;71.65;;;27.38;;
48665;SDS011;34452;50.796;4.994;2023-07-02T06:05:56;65.22;;;24.65;;
48665;SDS011;34452;50.796;4.994;2023-07-02T06:08:22;61.05;;;25.17;;
48665;SDS011;34452;50.796;4.994;2023-07-02T06:10:48;61.92;;;26.13;;
48665;SDS011;34452;50.796;4.994;2023-07-02T06:13:14;58.10;;;25.23;;
48665;SDS011;34452;50.796;4.994;2023-07-02T06:15:40;58.63;;;24.85;;
48665;SDS011;34452;50.796;4.994;2023-07-02T06:18:06;58.55;;;27.10;;
48665;SDS011;34452;50.796;4.994;2023-07-02T06:20:31;62.70;;;25.75;;
48665;SDS011;34452;50.796;4.994;2023-07-02T06:22:57;68.20;;;25.80;;
48665;SDS011;34452;50.796;4.994;2023-07-02T06:25:23;62.08;;;26.95;;
48665;SDS011;34452;50.796;4.994;2023-07-02T06:27:49;67.22;;;24.88;;
48665;SDS011;34452;50.796;4.994;2023-07-02T06:30:15;54.47;;;23.98;;
48665;SDS011;34452;50.796;4.994;2023-07-02T06:32:41;59.55;;;25.98;;
48665;SDS011;34452;50.796;4.994;2023-07-02T06:35:07;54.35;;;25.15;;
48665;SDS011;34452;50.796;4.994;2023-07-02T06:37:33;69.60;;;24.67;;
48665;SDS011;34452;50.796;4.994;2023-07-02T06:39:59;55.50;;;23.77;;
48665;SDS011;34452;50.796;4.994;2023-07-02T06:42:25;57.83;;;25.65;;
48665;SDS011;34452;50.796;4.994;2023-07-02T06:44:51;70.90;;;26.55;;
48665;SDS011;34452;50.796;4.994;2023-07-02T06:47:17;53.85;;;23.65;;
48665;SDS011;34452;50.796;4.994;2023-07-02T06:49:43;62.90;;;23.60;;
48665;SDS011;34452;50.796;4.994;2023-07-02T06:52:08;58.45;;;24.10;;
48665;SDS011;34452;50.796;4.994;2023-07-02T06:54:34;58.33;;;23.73;;
48665;SDS011;34452;50.796;4.994;2023-07-02T06:57:00;60.17;;;24.60;;
48665;SDS011;34452;50.796;4.994;2023-07-02T06:59:26;55.03;;;22.70;;
48665;SDS011;34452;50.796;4.994;2023-07-02T07:01:52;65.95;;;22.58;;
48665;SDS011;34452;50.796;4.994;2023-07-02T07:04:18;64.18;;;25.60;;
48665;SDS011;34452;50.796;4.994;2023-07-02T07:06:43;62.85;;;24.95;;
48665;SDS011;34452;50.796;4.994;2023-07-02T07:09:09;49.20;;;20.38;;
48665;SDS011;34452;50.796;4.994;2023-07-02T07:11:35;53.40;;;23.08;;
48665;SDS011;34452;50.796;4.994;2023-07-02T07:14:01;57.60;;;23.25;;
48665;SDS011;34452;50.796;4.994;2023-07-02T07:16:27;57.47;;;23.02;;
48665;SDS011;34452;50.796;4.994;2023-07-02T07:18:52;52.03;;;22.58;;
48665;SDS011;34452;50.796;4.994;2023-07-02T07:21:18;64.10;;;24.17;;
48665;SDS011;34452;50.796;4.994;2023-07-02T07:23:44;52.70;;;23.55;;
48665;SDS011;34452;50.796;4.994;2023-07-02T07:26:09;60.15;;;21.63;;
48665;SDS011;34452;50.796;4.994;2023-07-02T07:28:35;47.85;;;19.55;;
48665;SDS011;34452;50.796;4.994;2023-07-02T07:31:01;46.47;;;20.63;;
48665;SDS011;34452;50.796;4.994;2023-07-02T07:33:27;60.25;;;22.63;;
48665;SDS011;34452;50.796;4.994;2023-07-02T07:35:53;52.75;;;20.52;;
48665;SDS011;34452;50.796;4.994;2023-07-02T07:38:19;41.63;;;19.73;;
48665;SDS011;34452;50.796;4.994;2023-07-02T07:40:44;45.00;;;20.20;;
48665;SDS011;34452;50.796;4.994;2023-07-02T07:43:10;44.25;;;19.80;;
48665;SDS011;34452;50.796;4.994;2023-07-02T07:45:36;59.35;;;20.13;;
48665;SDS011;34452;50.796;4.994;2023-07-02T07:48:03;48.70;;;20.83;;
48665;SDS011;34452;50.796;4.994;2023-07-02T07:50:29;47.83;;;20.92;;
48665;SDS011;34452;50.796;4.994;2023-07-02T07:52:55;52.58;;;21.20;;
48665;SDS011;34452;50.796;4.994;2023-07-02T07:55:21;47.65;;;20.55;;
48665;SDS011;34452;50.796;4.994;2023-07-02T07:57:47;46.10;;;19.80;;
48665;SDS011;34452;50.796;4.994;2023-07-02T08:00:13;48.63;;;19.80;;
48665;SDS011;34452;50.796;4.994;2023-07-02T08:02:39;42.03;;;20.08;;
48665;SDS011;34452;50.796;4.994;2023-07-02T08:05:05;42.40;;;18.02;;
48665;SDS011;34452;50.796;4.994;2023-07-02T08:07:31;52.95;;;18.73;;
48665;SDS011;34452;50.796;4.994;2023-07-02T08:09:58;41.38;;;18.52;;
48665;SDS011;34452;50.796;4.994;2023-07-02T08:14:51;41.05;;;17.60;;
48665;SDS011;34452;50.796;4.994;2023-07-02T08:17:17;40.97;;;16.45;;
48665;SDS011;34452;50.796;4.994;2023-07-02T08:19:43;52.40;;;18.17;;
48665;SDS011;34452;50.796;4.994;2023-07-02T08:22:09;52.65;;;19.10;;
48665;SDS011;34452;50.796;4.994;2023-07-02T08:24:34;46.28;;;17.27;;
48665;SDS011;34452;50.796;4.994;2023-07-02T08:27:00;35.75;;;15.40;;
48665;SDS011;34452;50.796;4.994;2023-07-02T08:29:28;37.58;;;14.75;;
48665;SDS011;34452;50.796;4.994;2023-07-02T08:31:55;36.33;;;13.45;;
48665;SDS011;34452;50.796;4.994;2023-07-02T08:34:22;35.30;;;14.25;;
48665;SDS011;34452;50.796;4.994;2023-07-02T08:36:48;30.98;;;12.43;;
48665;SDS011;34452;50.796;4.994;2023-07-02T08:39:14;43.85;;;14.85;;
48665;SDS011;34452;50.796;4.994;2023-07-02T08:41:41;36.55;;;13.75;;
48665;SDS011;34452;50.796;4.994;2023-07-02T08:44:09;31.58;;;13.60;;
48665;SDS011;34452;50.796;4.994;2023-07-02T08:46:38;35.55;;;12.20;;
48665;SDS011;34452;50.796;4.994;2023-07-02T08:49:06;27.90;;;12.75;;
48665;SDS011;34452;50.796;4.994;2023-07-02T08:53:58;32.88;;;13.40;;
48665;SDS011;34452;50.796;4.994;2023-07-02T08:56:23;47.42;;;13.82;;
48665;SDS011;34452;50.796;4.994;2023-07-02T08:58:49;37.28;;;13.18;;
48665;SDS011;34452;50.796;4.994;2023-07-02T09:01:15;40.72;;;15.20;;
48665;SDS011;34452;50.796;4.994;2023-07-02T09:03:40;34.67;;;13.13;;
48665;SDS011;34452;50.796;4.994;2023-07-02T09:06:07;26.52;;;12.10;;
48665;SDS011;34452;50.796;4.994;2023-07-02T09:08:35;33.75;;;12.95;;
48665;SDS011;34452;50.796;4.994;2023-07-02T09:13:47;38.65;;;12.95;;
48665;SDS011;34452;50.796;4.994;2023-07-02T09:24:24;31.83;;;13.32;;
48665;SDS011;34452;50.796;4.994;2023-07-02T09:26:51;31.95;;;11.68;;
48665;SDS011;34452;50.796;4.994;2023-07-02T09:29:19;31.30;;;12.13;;
48665;SDS011;34452;50.796;4.994;2023-07-02T09:31:48;28.80;;;13.52;;
48665;SDS011;34452;50.796;4.994;2023-07-02T09:34:15;28.52;;;12.40;;
48665;SDS011;34452;50.796;4.994;2023-07-02T09:36:40;26.30;;;11.65;;
48665;SDS011;34452;50.796;4.994;2023-07-02T09:41:36;29.10;;;11.52;;
48665;SDS011;34452;50.796;4.994;2023-07-02T09:44:02;31.27;;;11.48;;
48665;SDS011;34452;50.796;4.994;2023-07-02T09:46:28;26.67;;;11.20;;
48665;SDS011;34452;50.796;4.994;2023-07-02T09:48:55;26.60;;;10.80;;
48665;SDS011;34452;50.796;4.994;2023-07-02T09:51:23;27.45;;;11.10;;
48665;SDS011;34452;50.796;4.994;2023-07-02T09:53:50;28.88;;;10.77;;
48665;SDS011;34452;50.796;4.994;2023-07-02T09:56:17;26.98;;;11.63;;
48665;SDS011;34452;50.796;4.994;2023-07-02T09:58:44;25.55;;;10.30;;
48665;SDS011;34452;50.796;4.994;2023-07-02T10:01:10;28.20;;;11.50;;
48665;SDS011;34452;50.796;4.994;2023-07-02T10:03:36;31.77;;;11.30;;
48665;SDS011;34452;50.796;4.994;2023-07-02T10:06:03;32.45;;;11.80;;
48665;SDS011;34452;50.796;4.994;2023-07-02T10:08:30;28.15;;;11.43;;
48665;SDS011;34452;50.796;4.994;2023-07-02T10:11:07;22.80;;;10.95;;
48665;SDS011;34452;50.796;4.994;2023-07-02T10:13:35;36.50;;;11.43;;
48665;SDS011;34452;50.796;4.994;2023-07-02T10:16:02;24.50;;;11.50;;
48665;SDS011;34452;50.796;4.994;2023-07-02T10:18:28;33.33;;;13.30;;
48665;SDS011;34452;50.796;4.994;2023-07-02T10:20:54;30.27;;;11.73;;
48665;SDS011;34452;50.796;4.994;2023-07-02T10:23:20;28.13;;;11.82;;
48665;SDS011;34452;50.796;4.994;2023-07-02T10:28:22;30.38;;;11.88;;
48665;SDS011;34452;50.796;4.994;2023-07-02T10:30:51;35.50;;;12.50;;
48665;SDS011;34452;50.796;4.994;2023-07-02T10:33:18;28.08;;;12.40;;
48665;SDS011;34452;50.796;4.994;2023-07-02T10:35:46;36.42;;;12.45;;
48665;SDS011;34452;50.796;4.994;2023-07-02T10:38:17;32.95;;;11.52;;
48665;SDS011;34452;50.796;4.994;2023-07-02T10:40:44;30.33;;;11.18;;
48665;SDS011;34452;50.796;4.994;2023-07-02T10:43:11;26.05;;;12.65;;
48665;SDS011;34452;50.796;4.994;2023-07-02T10:45:36;34.47;;;12.30;;
48665;SDS011;34452;50.796;4.994;2023-07-02T10:48:03;29.05;;;11.55;;
48665;SDS011;34452;50.796;4.994;2023-07-02T10:50:30;32.25;;;11.73;;
48665;SDS011;34452;50.796;4.994;2023-07-02T10:52:57;30.90;;;11.63;;
48665;SDS011;34452;50.796;4.994;2023-07-02T10:55:23;27.58;;;11.23;;
48665;SDS011;34452;50.796;4.994;2023-07-02T10:57:50;34.78;;;11.98;;
48665;SDS011;34452;50.796;4.994;2023-07-02T11:00:27;25.27;;;11.30;;
48665;SDS011;34452;50.796;4.994;2023-07-02T11:02:54;31.70;;;11.80;;
48665;SDS011;34452;50.796;4.994;2023-07-02T11:05:20;24.95;;;11.65;;
48665;SDS011;34452;50.796;4.994;2023-07-02T11:07:46;22.60;;;11.23;;
48665;SDS011;34452;50.796;4.994;2023-07-02T11:10:17;26.48;;;11.55;;
48665;SDS011;34452;50.796;4.994;2023-07-02T11:12:44;25.70;;;11.45;;
48665;SDS011;34452;50.796;4.994;2023-07-02T11:15:10;32.47;;;11.90;;
48665;SDS011;34452;50.796;4.994;2023-07-02T11:17:38;28.05;;;10.73;;
48665;SDS011;34452;50.796;4.994;2023-07-02T11:20:22;39.03;;;11.38;;
48665;SDS011;34452;50.796;4.994;2023-07-02T11:22:58;32.80;;;11.73;;
48665;SDS011;34452;50.796;4.994;2023-07-02T11:25:24;31.45;;;11.05;;
48665;SDS011;34452;50.796;4.994;2023-07-02T11:27:49;28.30;;;10.50;;
48665;SDS011;34452;50.796;4.994;2023-07-02T11:30:26;41.15;;;12.07;;
48665;SDS011;34452;50.796;4.994;2023-07-02T11:32:53;30.13;;;10.90;;
48665;SDS011;34452;50.796;4.994;2023-07-02T11:35:19;25.08;;;11.10;;
48665;SDS011;34452;50.796;4.994;2023-07-02T11:37:46;27.20;;;11.15;;
48665;SDS011;34452;50.796;4.994;2023-07-02T11:40:14;24.58;;;11.25;;
48665;SDS011;34452;50.796;4.994;2023-07-02T11:42:42;33.30;;;11.48;;
48665;SDS011;34452;50.796;4.994;2023-07-02T11:45:09;31.95;;;11.18;;
48665;SDS011;34452;50.796;4.994;2023-07-02T11:47:35;33.95;;;11.27;;
48665;SDS011;34452;50.796;4.994;2023-07-02T11:50:02;27.83;;;11.57;;
48665;SDS011;34452;50.796;4.994;2023-07-02T11:52:28;31.83;;;11.02;;
48665;SDS011;34452;50.796;4.994;2023-07-02T11:54:54;26.60;;;11.18;;
48665;SDS011;34452;50.796;4.994;2023-07-02T11:57:20;27.02;;;10.73;;
48665;SDS011;34452;50.796;4.994;2023-07-02T11:59:47;26.30;;;10.65;;
48665;SDS011;34452;50.796;4.994;2023-07-02T12:02:14;25.23;;;10.85;;
48665;SDS011;34452;50.796;4.994;2023-07-02T12:04:40;32.05;;;11.32;;
48665;SDS011;34452;50.796;4.994;2023-07-02T12:07:05;26.73;;;10.10;;
48665;SDS011;34452;50.796;4.994;2023-07-02T12:09:31;29.65;;;11.85;;
48665;SDS011;34452;50.796;4.994;2023-07-02T12:11:57;28.75;;;10.25;;
48665;SDS011;34452;50.796;4.994;2023-07-02T12:14:23;26.95;;;10.80;;
48665;SDS011;34452;50.796;4.994;2023-07-02T12:16:48;27.40;;;11.27;;
48665;SDS011;34452;50.796;4.994;2023-07-02T12:19:14;30.35;;;10.13;;
48665;SDS011;34452;50.796;4.994;2023-07-02T12:21:40;31.67;;;10.38;;
48665;SDS011;34452;50.796;4.994;2023-07-02T12:24:05;30.33;;;10.70;;
48665;SDS011;34452;50.796;4.994;2023-07-02T12:26:35;35.35;;;10.43;;
48665;SDS011;34452;50.796;4.994;2023-07-02T12:29:02;26.63;;;10.48;;
48665;SDS011;34452;50.796;4.994;2023-07-02T12:31:29;30.90;;;11.90;;
48665;SDS011;34452;50.796;4.994;2023-07-02T12:36:20;27.83;;;9.75;;
48665;SDS011;34452;50.796;4.994;2023-07-02T12:38:46;27.00;;;11.73;;
48665;SDS011;34452;50.796;4.994;2023-07-02T12:41:12;30.60;;;11.45;;
48665;SDS011;34452;50.796;4.994;2023-07-02T12:43:38;27.60;;;10.65;;
48665;SDS011;34452;50.796;4.994;2023-07-02T12:46:03;23.77;;;10.55;;
48665;SDS011;34452;50.796;4.994;2023-07-02T12:48:31;25.73;;;11.23;;
48665;SDS011;34452;50.796;4.994;2023-07-02T12:50:57;31.88;;;10.35;;
48665;SDS011;34452;50.796;4.994;2023-07-02T12:53:24;29.67;;;10.25;;
48665;SDS011;34452;50.796;4.994;2023-07-02T12:55:50;28.65;;;10.55;;
48665;SDS011;34452;50.796;4.994;2023-07-02T12:58:16;32.20;;;11.20;;
48665;SDS011;34452;50.796;4.994;2023-07-02T13:00:41;29.25;;;11.07;;
48665;SDS011;34452;50.796;4.994;2023-07-02T13:03:10;42.70;;;12.25;;
48665;SDS011;34452;50.796;4.994;2023-07-02T13:05:37;29.60;;;11.43;;
48665;SDS011;34452;50.796;4.994;2023-07-02T13:08:03;27.85;;;10.95;;
48665;SDS011;34452;50.796;4.994;2023-07-02T13:10:29;30.90;;;10.85;;
48665;SDS011;34452;50.796;4.994;2023-07-02T13:12:56;24.42;;;10.45;;
48665;SDS011;34452;50.796;4.994;2023-07-02T13:17:48;33.92;;;10.88;;
48665;SDS011;34452;50.796;4.994;2023-07-02T13:20:13;27.45;;;10.02;;
48665;SDS011;34452;50.796;4.994;2023-07-02T13:22:39;27.30;;;12.05;;
48665;SDS011;34452;50.796;4.994;2023-07-02T13:25:05;27.20;;;10.82;;
48665;SDS011;34452;50.796;4.994;2023-07-02T13:27:31;24.75;;;10.27;;
48665;SDS011;34452;50.796;4.994;2023-07-02T13:29:57;23.65;;;9.82;;
48665;SDS011;34452;50.796;4.994;2023-07-02T13:32:23;33.70;;;11.18;;
48665;SDS011;34452;50.796;4.994;2023-07-02T13:34:49;24.58;;;9.77;;
48665;SDS011;34452;50.796;4.994;2023-07-02T13:37:15;35.38;;;10.52;;
48665;SDS011;34452;50.796;4.994;2023-07-02T13:39:43;32.25;;;9.95;;
48665;SDS011;34452;50.796;4.994;2023-07-02T13:42:11;28.33;;;10.18;;
48665;SDS011;34452;50.796;4.994;2023-07-02T13:44:37;36.33;;;11.02;;
48665;SDS011;34452;50.796;4.994;2023-07-02T13:49:29;29.88;;;10.77;;
48665;SDS011;34452;50.796;4.994;2023-07-02T13:51:55;27.85;;;9.77;;
48665;SDS011;34452;50.796;4.994;2023-07-02T13:54:21;21.73;;;9.93;;
48665;SDS011;34452;50.796;4.994;2023-07-02T13:56:47;31.02;;;10.48;;
48665;SDS011;34452;50.796;4.994;2023-07-02T13:59:13;38.00;;;11.48;;
48665;SDS011;34452;50.796;4.994;2023-07-02T14:01:39;27.33;;;9.63;;
48665;SDS011;34452;50.796;4.994;2023-07-02T14:04:05;32.00;;;11.05;;
48665;SDS011;34452;50.796;4.994;2023-07-02T14:06:31;27.98;;;11.02;;
48665;SDS011;34452;50.796;4.994;2023-07-02T14:08:57;25.15;;;9.13;;
48665;SDS011;34452;50.796;4.994;2023-07-02T14:11:23;26.83;;;9.27;;
48665;SDS011;34452;50.796;4.994;2023-07-02T14:13:49;23.63;;;8.95;;
48665;SDS011;34452;50.796;4.994;2023-07-02T14:16:15;25.08;;;9.68;;
48665;SDS011;34452;50.796;4.994;2023-07-02T14:18:41;20.33;;;8.73;;
48665;SDS011;34452;50.796;4.994;2023-07-02T14:21:07;27.35;;;9.50;;
48665;SDS011;34452;50.796;4.994;2023-07-02T14:23:33;27.30;;;9.82;;
48665;SDS011;34452;50.796;4.994;2023-07-02T14:25:58;27.13;;;10.05;;
48665;SDS011;34452;50.796;4.994;2023-07-02T14:28:25;25.88;;;10.13;;
48665;SDS011;34452;50.796;4.994;2023-07-02T14:30:55;23.73;;;9.93;;
48665;SDS011;34452;50.796;4.994;2023-07-02T14:33:23;24.45;;;9.30;;
48665;SDS011;34452;50.796;4.994;2023-07-02T14:35:49;21.83;;;9.65;;
48665;SDS011;34452;50.796;4.994;2023-07-02T14:38:15;31.48;;;10.18;;
48665;SDS011;34452;50.796;4.994;2023-07-02T14:40:40;33.88;;;9.68;;
48665;SDS011;34452;50.796;4.994;2023-07-02T14:43:06;27.30;;;9.85;;
48665;SDS011;34452;50.796;4.994;2023-07-02T14:45:32;28.10;;;10.35;;
48665;SDS011;34452;50.796;4.994;2023-07-02T14:47:58;28.38;;;10.07;;
48665;SDS011;34452;50.796;4.994;2023-07-02T14:50:25;22.58;;;10.60;;
48665;SDS011;34452;50.796;4.994;2023-07-02T14:52:51;31.00;;;9.90;;
48665;SDS011;34452;50.796;4.994;2023-07-02T14:55:17;29.75;;;10.25;;
48665;SDS011;34452;50.796;4.994;2023-07-02T15:00:08;22.83;;;9.68;;
48665;SDS011;34452;50.796;4.994;2023-07-02T15:02:34;28.02;;;9.50;;
48665;SDS011;34452;50.796;4.994;2023-07-02T15:05:00;24.63;;;9.88;;
48665;SDS011;34452;50.796;4.994;2023-07-02T15:07:27;26.35;;;9.43;;
48665;SDS011;34452;50.796;4.994;2023-07-02T15:09:53;26.20;;;9.95;;
48665;SDS011;34452;50.796;4.994;2023-07-02T15:12:19;25.52;;;9.25;;
48665;SDS011;34452;50.796;4.994;2023-07-02T15:14:45;24.45;;;10.30;;